Time,TemperatureF,DewpointF,PressureIn,WindDirection,WindDirectionDegrees,WindSpeedMPH,WindSpeedGustMPH,Humidity,HourlyPrecipIn,Conditions,Clouds,dailyrainin,SoftwareType,DateUTC
2013-01-26 00:00:00,7.8,5.2,30.12,ESE,123,0.0,0.0,89,0.00,,,0.00,Wunderground v.1.15,2013-01-26 05:00:00,
2013-01-26 00:01:00,7.7,5.1,30.12,ESE,123,0.0,0.0,89,0.00,,,0.00,Wunderground v.1.15,2013-01-26 05:01:00,
2013-01-26 00:03:00,7.7,4.9,30.12,ESE,122,0.0,0.0,88,0.00,,,0.00,Wunderground v.1.15,2013-01-26 05:03:00,
2013-01-26 00:10:00,7.3,4.5,30.12,ESE,123,0.0,0.0,88,0.00,,,0.00,Wunderground v.1.15,2013-01-26 05:10:00,
2013-01-26 00:15:00,6.8,4.0,30.12,ESE,122,0.0,0.0,88,0.00,,,0.00,Wunderground v.1.15,2013-01-26 05:15:00,
2013-01-26 00:20:00,6.6,3.8,30.12,SE,136,0.0,0.0,88,0.00,,,0.00,Wunderground v.1.15,2013-01-26 05:20:00,
2013-01-26 00:26:00,6.6,4.0,30.11,ESE,120,0.0,1.0,89,0.00,,,0.00,Wunderground v.1.15,2013-01-26 05:26:00,
2013-01-26 00:31:00,6.5,3.9,30.11,ESE,123,0.0,1.0,89,0.00,,,0.00,Wunderground v.1.15,2013-01-26 05:31:00,
2013-01-26 00:36:00,6.5,3.9,30.11,ESE,107,0.0,1.0,89,0.00,,,0.00,Wunderground v.1.15,2013-01-26 05:36:00,
2013-01-26 00:42:00,6.3,3.8,30.11,ESE,118,0.0,0.0,89,0.00,,,0.00,Wunderground v.1.15,2013-01-26 05:42:00,
2013-01-26 00:47:00,6.2,3.7,30.11,ESE,119,0.0,0.0,89,0.00,,,0.00,Wunderground v.1.15,2013-01-26 05:47:00,
2013-01-26 00:53:00,6.2,3.7,30.12,ESE,118,0.0,0.0,89,0.00,,,0.00,Wunderground v.1.15,2013-01-26 05:53:00,
2013-01-26 00:59:00,6.1,3.6,30.12,ESE,119,0.0,0.0,89,0.00,,,0.00,Wunderground v.1.15,2013-01-26 05:59:00,
2013-01-26 01:05:00,5.9,3.4,30.12,ESE,119,0.0,0.0,89,0.00,,,0.00,Wunderground v.1.15,2013-01-26 06:05:00,
2013-01-26 01:11:00,5.6,3.1,30.12,ESE,118,0.0,0.0,89,0.00,,,0.00,Wunderground v.1.15,2013-01-26 06:11:00,
2013-01-26 01:16:00,5.3,2.8,30.12,ESE,118,0.0,0.0,89,0.00,,,0.00,Wunderground v.1.15,2013-01-26 06:16:00,
2013-01-26 01:21:00,5.1,2.6,30.11,ESE,119,0.0,0.0,89,0.00,,,0.00,Wunderground v.1.15,2013-01-26 06:21:00,
2013-01-26 01:28:00,5.0,2.5,30.11,ESE,119,0.0,0.0,89,0.00,,,0.00,Wunderground v.1.15,2013-01-26 06:28:00,
2013-01-26 01:33:00,4.7,2.2,30.11,ESE,118,0.0,0.0,89,0.00,,,0.00,Wunderground v.1.15,2013-01-26 06:33:00,
2013-01-26 01:39:00,4.7,2.2,30.12,ESE,119,0.0,0.0,89,0.00,,,0.00,Wunderground v.1.15,2013-01-26 06:39:00,
2013-01-26 01:45:00,4.6,2.1,30.12,ESE,119,0.0,0.0,89,0.00,,,0.00,Wunderground v.1.15,2013-01-26 06:45:00,
2013-01-26 01:50:00,4.6,2.1,30.12,ESE,118,0.0,0.0,89,0.00,,,0.00,Wunderground v.1.15,2013-01-26 06:50:00,
2013-01-26 01:55:00,4.7,2.2,30.12,ESE,118,0.0,0.0,89,0.00,,,0.00,Wunderground v.1.15,2013-01-26 06:55:00,
2013-01-26 02:00:00,4.4,1.9,30.12,ESE,119,0.0,0.0,89,0.00,,,0.00,Wunderground v.1.15,2013-01-26 07:00:00,
2013-01-26 02:07:00,4.4,1.9,30.12,ESE,118,0.0,0.0,89,0.00,,,0.00,Wunderground v.1.15,2013-01-26 07:07:00,
2013-01-26 02:13:00,4.3,1.8,30.13,ESE,118,0.0,0.0,89,0.00,,,0.00,Wunderground v.1.15,2013-01-26 07:13:00,
2013-01-26 02:19:00,4.4,2.1,30.13,ESE,119,0.0,0.0,90,0.00,,,0.00,Wunderground v.1.15,2013-01-26 07:19:00,
2013-01-26 02:25:00,4.5,2.2,30.13,ESE,118,0.0,0.0,90,0.00,,,0.00,Wunderground v.1.15,2013-01-26 07:25:00,
2013-01-26 02:31:00,4.7,2.4,30.13,ESE,122,0.0,0.0,90,0.00,,,0.00,Wunderground v.1.15,2013-01-26 07:31:00,
2013-01-26 02:36:00,4.7,2.4,30.13,ESE,122,0.0,0.0,90,0.00,,,0.00,Wunderground v.1.15,2013-01-26 07:36:00,
2013-01-26 02:43:00,4.6,2.1,30.13,ESE,122,0.0,0.0,89,0.00,,,0.00,Wunderground v.1.15,2013-01-26 07:43:00,
2013-01-26 02:48:00,4.5,2.0,30.13,ESE,122,0.0,0.0,89,0.00,,,0.00,Wunderground v.1.15,2013-01-26 07:48:00,
2013-01-26 02:53:00,4.4,1.9,30.13,ESE,122,0.0,0.0,89,0.00,,,0.00,Wunderground v.1.15,2013-01-26 07:53:00,
2013-01-26 02:58:00,4.3,1.8,30.13,ESE,123,0.0,0.0,89,0.00,,,0.00,Wunderground v.1.15,2013-01-26 07:58:00,
2013-01-26 03:04:00,4.1,1.6,30.13,ESE,123,0.0,0.0,89,0.00,,,0.00,Wunderground v.1.15,2013-01-26 08:04:00,
2013-01-26 03:10:00,4.3,2.0,30.14,SE,124,0.0,0.0,90,0.00,,,0.00,Wunderground v.1.15,2013-01-26 08:10:00,
2013-01-26 03:15:00,4.6,2.3,30.14,WNW,288,0.0,1.0,90,0.00,,,0.00,Wunderground v.1.15,2013-01-26 08:15:00,
2013-01-26 03:20:00,4.6,2.1,30.14,West,260,0.0,1.0,89,0.00,,,0.00,Wunderground v.1.15,2013-01-26 08:20:00,
2013-01-26 03:27:00,4.3,1.8,30.14,SE,142,0.0,0.0,89,0.00,,,0.00,Wunderground v.1.15,2013-01-26 08:27:00,
2013-01-26 03:32:00,4.0,1.2,30.14,SE,142,0.0,0.0,88,0.00,,,0.00,Wunderground v.1.15,2013-01-26 08:32:00,
2013-01-26 03:37:00,3.9,1.4,30.14,SE,143,0.0,0.0,89,0.00,,,0.00,Wunderground v.1.15,2013-01-26 08:37:00,
2013-01-26 03:43:00,3.7,1.2,30.14,SE,142,0.0,0.0,89,0.00,,,0.00,Wunderground v.1.15,2013-01-26 08:43:00,
2013-01-26 03:48:00,3.5,0.7,30.14,SE,142,0.0,0.0,88,0.00,,,0.00,Wunderground v.1.15,2013-01-26 08:48:00,
2013-01-26 03:54:00,3.5,1.0,30.14,SE,142,0.0,0.0,89,0.00,,,0.00,Wunderground v.1.15,2013-01-26 08:54:00,
2013-01-26 03:59:00,3.5,1.0,30.14,SE,142,0.0,0.0,89,0.00,,,0.00,Wunderground v.1.15,2013-01-26 08:59:00,
2013-01-26 04:04:00,3.4,0.9,30.14,SE,143,0.0,0.0,89,0.00,,,0.00,Wunderground v.1.15,2013-01-26 09:04:00,
2013-01-26 04:10:00,3.5,1.0,30.14,SE,142,0.0,0.0,89,0.00,,,0.00,Wunderground v.1.15,2013-01-26 09:10:00,
2013-01-26 04:16:00,3.5,1.0,30.14,SE,143,0.0,0.0,89,0.00,,,0.00,Wunderground v.1.15,2013-01-26 09:16:00,
2013-01-26 04:22:00,3.4,0.9,30.14,SE,131,0.0,0.0,89,0.00,,,0.00,Wunderground v.1.15,2013-01-26 09:22:00,
2013-01-26 04:27:00,3.3,0.5,30.14,ESE,118,0.0,0.0,88,0.00,,,0.00,Wunderground v.1.15,2013-01-26 09:27:00,
2013-01-26 04:33:00,3.3,0.5,30.14,ESE,118,0.0,0.0,88,0.00,,,0.00,Wunderground v.1.15,2013-01-26 09:33:00,
2013-01-26 04:38:00,3.2,0.4,30.14,ESE,123,0.0,0.0,88,0.00,,,0.00,Wunderground v.1.15,2013-01-26 09:38:00,
2013-01-26 04:44:00,3.0,0.3,30.14,ESE,120,0.0,0.0,88,0.00,,,0.00,Wunderground v.1.15,2013-01-26 09:44:00,
2013-01-26 04:49:00,3.0,0.3,30.14,ESE,120,0.0,0.0,88,0.00,,,0.00,Wunderground v.1.15,2013-01-26 09:49:00,
2013-01-26 04:55:00,3.0,0.3,30.15,ESE,120,0.0,0.0,88,0.00,,,0.00,Wunderground v.1.15,2013-01-26 09:55:00,
2013-01-26 05:00:00,2.8,0.1,30.15,ESE,120,0.0,0.0,88,0.00,,,0.00,Wunderground v.1.15,2013-01-26 10:00:00,
2013-01-26 05:06:00,2.6,-0.1,30.15,ESE,120,0.0,0.0,88,0.00,,,0.00,Wunderground v.1.15,2013-01-26 10:06:00,
2013-01-26 05:11:00,2.6,-0.1,30.16,ESE,120,0.0,0.0,88,0.00,,,0.00,Wunderground v.1.15,2013-01-26 10:11:00,
2013-01-26 05:16:00,2.6,0.1,30.16,ESE,120,0.0,0.0,89,0.00,,,0.00,Wunderground v.1.15,2013-01-26 10:16:00,
2013-01-26 05:21:00,2.6,-0.1,30.16,ESE,120,0.0,0.0,88,0.00,,,0.00,Wunderground v.1.15,2013-01-26 10:21:00,
2013-01-26 05:27:00,2.6,0.1,30.16,ESE,120,0.0,0.0,89,0.00,,,0.00,Wunderground v.1.15,2013-01-26 10:27:00,
2013-01-26 05:32:00,2.7,0.2,30.16,ESE,120,0.0,0.0,89,0.00,,,0.00,Wunderground v.1.15,2013-01-26 10:32:00,
2013-01-26 05:38:00,2.6,0.1,30.16,ESE,120,0.0,0.0,89,0.00,,,0.00,Wunderground v.1.15,2013-01-26 10:38:00,
2013-01-26 05:43:00,2.5,0.0,30.17,ESE,120,0.0,0.0,89,0.00,,,0.00,Wunderground v.1.15,2013-01-26 10:43:00,
2013-01-26 05:50:00,2.2,-0.5,30.17,ESE,120,0.0,0.0,88,0.00,,,0.00,Wunderground v.1.15,2013-01-26 10:50:00,
2013-01-26 05:55:00,2.1,-0.6,30.17,ESE,120,0.0,0.0,88,0.00,,,0.00,Wunderground v.1.15,2013-01-26 10:55:00,
2013-01-26 06:00:00,1.9,-0.8,30.18,ESE,120,0.0,0.0,88,0.00,,,0.00,Wunderground v.1.15,2013-01-26 11:00:00,
2013-01-26 06:05:00,1.8,-0.7,30.17,ESE,120,0.0,0.0,89,0.00,,,0.00,Wunderground v.1.15,2013-01-26 11:05:00,
2013-01-26 06:11:00,1.8,-0.7,30.17,ESE,120,0.0,0.0,89,0.00,,,0.00,Wunderground v.1.15,2013-01-26 11:11:00,
2013-01-26 06:16:00,2.0,-0.5,30.17,ESE,120,0.0,0.0,89,0.00,,,0.00,Wunderground v.1.15,2013-01-26 11:16:00,
2013-01-26 06:21:00,1.9,-0.6,30.18,ESE,120,0.0,0.0,89,0.00,,,0.00,Wunderground v.1.15,2013-01-26 11:21:00,
2013-01-26 06:26:00,1.7,-1.0,30.18,ESE,120,0.0,0.0,88,0.00,,,0.00,Wunderground v.1.15,2013-01-26 11:26:00,
2013-01-26 06:31:00,1.6,-1.1,30.18,ESE,120,0.0,0.0,88,0.00,,,0.00,Wunderground v.1.15,2013-01-26 11:31:00,
2013-01-26 06:37:00,1.5,-1.2,30.18,ESE,120,0.0,0.0,88,0.00,,,0.00,Wunderground v.1.15,2013-01-26 11:37:00,
2013-01-26 06:42:00,1.5,-1.2,30.18,ESE,120,0.0,0.0,88,0.00,,,0.00,Wunderground v.1.15,2013-01-26 11:42:00,
2013-01-26 06:48:00,1.5,-1.2,30.19,ESE,120,0.0,0.0,88,0.00,,,0.00,Wunderground v.1.15,2013-01-26 11:48:00,
2013-01-26 06:53:00,1.4,-1.3,30.19,ESE,120,0.0,0.0,88,0.00,,,0.00,Wunderground v.1.15,2013-01-26 11:53:00,
2013-01-26 06:58:00,1.2,-1.5,30.19,ESE,120,0.0,0.0,88,0.00,,,0.00,Wunderground v.1.15,2013-01-26 11:58:00,
2013-01-26 07:04:00,1.1,-1.6,30.20,ESE,120,0.0,0.0,88,0.00,,,0.00,Wunderground v.1.15,2013-01-26 12:04:00,
2013-01-26 07:09:00,1.0,-1.7,30.20,ESE,120,0.0,0.0,88,0.00,,,0.00,Wunderground v.1.15,2013-01-26 12:09:00,
2013-01-26 07:15:00,1.0,-1.7,30.20,ESE,120,0.0,0.0,88,0.00,,,0.00,Wunderground v.1.15,2013-01-26 12:15:00,
2013-01-26 07:21:00,1.1,-1.4,30.20,ESE,120,0.0,0.0,89,0.00,,,0.00,Wunderground v.1.15,2013-01-26 12:21:00,
2013-01-26 07:26:00,1.0,-1.7,30.20,ESE,120,0.0,0.0,88,0.00,,,0.00,Wunderground v.1.15,2013-01-26 12:26:00,
2013-01-26 07:32:00,1.1,-1.4,30.20,ESE,120,0.0,0.0,89,0.00,,,0.00,Wunderground v.1.15,2013-01-26 12:32:00,
2013-01-26 07:38:00,1.3,-1.2,30.21,ESE,120,0.0,0.0,89,0.00,,,0.00,Wunderground v.1.15,2013-01-26 12:38:00,
2013-01-26 07:43:00,1.5,-1.0,30.21,ESE,120,0.0,0.0,89,0.00,,,0.00,Wunderground v.1.15,2013-01-26 12:43:00,
2013-01-26 07:48:00,1.5,-1.2,30.21,ESE,120,0.0,0.0,88,0.00,,,0.00,Wunderground v.1.15,2013-01-26 12:48:00,
2013-01-26 07:54:00,1.5,-1.2,30.22,ESE,120,0.0,0.0,88,0.00,,,0.00,Wunderground v.1.15,2013-01-26 12:54:00,
2013-01-26 07:59:00,1.8,-0.7,30.22,ESE,120,0.0,0.0,89,0.00,,,0.00,Wunderground v.1.15,2013-01-26 12:59:00,
2013-01-26 08:04:00,1.9,-0.8,30.22,ESE,120,0.0,0.0,88,0.00,,,0.00,Wunderground v.1.15,2013-01-26 13:04:00,
2013-01-26 08:09:00,1.9,-0.8,30.22,ESE,120,0.0,0.0,88,0.00,,,0.00,Wunderground v.1.15,2013-01-26 13:09:00,
2013-01-26 08:15:00,2.2,-0.3,30.22,ESE,120,0.0,0.0,89,0.00,,,0.00,Wunderground v.1.15,2013-01-26 13:15:00,
2013-01-26 08:20:00,3.4,1.4,30.22,WNW,293,0.0,0.0,91,0.00,,,0.00,Wunderground v.1.15,2013-01-26 13:20:00,
2013-01-26 08:25:00,3.6,1.1,30.22,WNW,293,0.0,0.0,89,0.00,,,0.00,Wunderground v.1.15,2013-01-26 13:25:00,
2013-01-26 08:30:00,3.7,0.9,30.22,WNW,293,0.0,0.0,88,0.00,,,0.00,Wunderground v.1.15,2013-01-26 13:30:00,
2013-01-26 08:36:00,4.1,1.6,30.22,WNW,293,0.0,0.0,89,0.00,,,0.00,Wunderground v.1.15,2013-01-26 13:36:00,
2013-01-26 08:42:00,4.9,2.4,30.22,WNW,293,0.0,0.0,89,0.00,,,0.00,Wunderground v.1.15,2013-01-26 13:42:00,
2013-01-26 08:47:00,5.4,2.6,30.23,WNW,293,0.0,0.0,88,0.00,,,0.00,Wunderground v.1.15,2013-01-26 13:47:00,
2013-01-26 08:52:00,6.2,3.4,30.23,WNW,293,0.0,0.0,88,0.00,,,0.00,Wunderground v.1.15,2013-01-26 13:52:00,
2013-01-26 08:57:00,6.6,3.8,30.23,WNW,293,0.0,0.0,88,0.00,,,0.00,Wunderground v.1.15,2013-01-26 13:57:00,
2013-01-26 09:03:00,6.8,3.8,30.23,WNW,293,0.0,0.0,87,0.00,,,0.00,Wunderground v.1.15,2013-01-26 14:03:00,
2013-01-26 09:09:00,6.3,2.8,30.23,WNW,293,0.0,0.0,85,0.00,,,0.00,Wunderground v.1.15,2013-01-26 14:09:00,
2013-01-26 09:14:00,6.3,3.0,30.23,WNW,293,0.0,0.0,86,0.00,,,0.00,Wunderground v.1.15,2013-01-26 14:14:00,
2013-01-26 09:20:00,6.5,3.2,30.23,WNW,293,0.0,0.0,86,0.00,,,0.00,Wunderground v.1.15,2013-01-26 14:20:00,
2013-01-26 09:25:00,6.9,3.6,30.24,WNW,293,0.0,0.0,86,0.00,,,0.00,Wunderground v.1.15,2013-01-26 14:25:00,
2013-01-26 09:30:00,7.6,4.3,30.24,WNW,293,0.0,0.0,86,0.00,,,0.00,Wunderground v.1.15,2013-01-26 14:30:00,
2013-01-26 09:35:00,7.8,4.2,30.24,WNW,302,0.0,2.0,85,0.00,,,0.00,Wunderground v.1.15,2013-01-26 14:35:00,
2013-01-26 09:40:00,8.0,4.4,30.24,WNW,290,0.0,2.0,85,0.00,,,0.00,Wunderground v.1.15,2013-01-26 14:40:00,
2013-01-26 09:46:00,8.4,4.6,30.25,WNW,300,0.0,1.0,84,0.00,,,0.00,Wunderground v.1.15,2013-01-26 14:46:00,
2013-01-26 09:51:00,8.5,4.7,30.25,WNW,294,1.0,3.0,84,0.00,,,0.00,Wunderground v.1.15,2013-01-26 14:51:00,
2013-01-26 09:57:00,8.6,4.5,30.25,WNW,294,3.0,6.0,83,0.00,,,0.00,Wunderground v.1.15,2013-01-26 14:57:00,
2013-01-26 10:03:00,8.6,4.8,30.25,West,260,4.0,4.0,84,0.00,,,0.00,Wunderground v.1.15,2013-01-26 15:03:00,
2013-01-26 10:08:00,9.2,5.1,30.25,WNW,288,3.0,4.0,83,0.00,,,0.00,Wunderground v.1.15,2013-01-26 15:08:00,
2013-01-26 10:13:00,9.8,5.7,30.25,WNW,299,2.0,3.0,83,0.00,,,0.00,Wunderground v.1.15,2013-01-26 15:13:00,
2013-01-26 10:19:00,10.3,6.2,30.25,West,262,2.0,5.0,83,0.00,,,0.00,Wunderground v.1.15,2013-01-26 15:19:00,
2013-01-26 10:24:00,11.0,6.6,30.25,WNW,290,2.0,2.0,82,0.00,,,0.00,Wunderground v.1.15,2013-01-26 15:24:00,
2013-01-26 10:30:00,11.7,7.0,30.25,WNW,294,1.0,3.0,81,0.00,,,0.00,Wunderground v.1.15,2013-01-26 15:30:00,
2013-01-26 10:35:00,12.0,6.7,30.25,WNW,297,1.0,4.0,79,0.00,,,0.00,Wunderground v.1.15,2013-01-26 15:35:00,
2013-01-26 10:40:00,12.2,6.7,30.25,NW,305,2.0,4.0,78,0.00,,,0.00,Wunderground v.1.15,2013-01-26 15:40:00,
2013-01-26 10:47:00,12.3,6.2,30.26,WNW,291,2.0,3.0,76,0.00,,,0.00,Wunderground v.1.15,2013-01-26 15:47:00,
2013-01-26 10:52:00,12.4,6.0,30.26,West,276,2.0,2.0,75,0.00,,,0.00,Wunderground v.1.15,2013-01-26 15:52:00,
2013-01-26 10:57:00,12.8,6.4,30.26,NNE,22,2.0,3.0,75,0.00,,,0.00,Wunderground v.1.15,2013-01-26 15:57:00,
2013-01-26 11:02:00,13.6,7.4,30.26,NW,306,1.0,2.0,76,0.00,,,0.00,Wunderground v.1.15,2013-01-26 16:02:00,
2013-01-26 11:08:00,13.9,7.7,30.26,WNW,298,0.0,2.0,76,0.00,,,0.00,Wunderground v.1.15,2013-01-26 16:08:00,
2013-01-26 11:14:00,14.1,7.3,30.26,West,277,0.0,1.0,74,0.00,,,0.00,Wunderground v.1.15,2013-01-26 16:14:00,
2013-01-26 11:19:00,15.0,7.9,30.26,NNE,25,0.0,1.0,73,0.00,,,0.00,Wunderground v.1.15,2013-01-26 16:19:00,
2013-01-26 11:25:00,16.0,8.6,30.25,East,81,0.0,0.0,72,0.00,,,0.00,Wunderground v.1.15,2013-01-26 16:25:00,
2013-01-26 11:30:00,16.0,7.9,30.25,WNW,294,0.0,3.0,70,0.00,,,0.00,Wunderground v.1.15,2013-01-26 16:30:00,
2013-01-26 11:35:00,15.8,7.7,30.25,ENE,74,0.0,3.0,70,0.00,,,0.00,Wunderground v.1.15,2013-01-26 16:35:00,
2013-01-26 11:40:00,16.1,8.0,30.25,WNW,296,1.0,1.0,70,0.00,,,0.00,Wunderground v.1.15,2013-01-26 16:40:00,
2013-01-26 11:45:00,16.6,8.8,30.26,ENE,59,1.0,1.0,71,0.00,,,0.00,Wunderground v.1.15,2013-01-26 16:45:00,
2013-01-26 11:51:00,17.3,8.9,30.25,NE,56,1.0,1.0,69,0.00,,,0.00,Wunderground v.1.15,2013-01-26 16:51:00,
2013-01-26 11:56:00,17.2,7.4,30.26,WNW,284,0.0,2.0,65,0.00,,,0.00,Wunderground v.1.15,2013-01-26 16:56:00,
2013-01-26 12:02:00,16.7,7.0,30.26,WNW,293,1.0,1.0,65,0.00,,,0.00,Wunderground v.1.15,2013-01-26 17:02:00,
2013-01-26 12:08:00,16.9,7.5,30.25,North,350,1.0,1.0,66,0.00,,,0.00,Wunderground v.1.15,2013-01-26 17:08:00,
2013-01-26 12:14:00,16.3,6.6,30.26,WNW,298,1.0,5.0,65,0.00,,,0.00,Wunderground v.1.15,2013-01-26 17:14:00,
2013-01-26 12:20:00,15.8,6.4,30.26,WNW,298,2.0,5.0,66,0.00,,,0.00,Wunderground v.1.15,2013-01-26 17:20:00,
2013-01-26 12:25:00,15.8,7.1,30.26,WNW,293,1.0,2.0,68,0.00,,,0.00,Wunderground v.1.15,2013-01-26 17:25:00,
2013-01-26 12:30:00,15.8,6.8,30.26,WNW,297,1.0,3.0,67,0.00,,,0.00,Wunderground v.1.15,2013-01-26 17:30:00,
2013-01-26 12:36:00,15.6,6.6,30.27,North,356,1.0,4.0,67,0.00,,,0.00,Wunderground v.1.15,2013-01-26 17:36:00,
2013-01-26 12:42:00,16.0,6.6,30.27,NW,307,1.0,3.0,66,0.00,,,0.00,Wunderground v.1.15,2013-01-26 17:42:00,
2013-01-26 12:48:00,15.9,6.5,30.27,WNW,298,1.0,7.0,66,0.00,,,0.00,Wunderground v.1.15,2013-01-26 17:48:00,
2013-01-26 12:53:00,15.9,5.5,30.27,WNW,296,3.0,8.0,63,0.00,,,0.00,Wunderground v.1.15,2013-01-26 17:53:00,
2013-01-26 12:59:00,15.5,5.5,30.27,WNW,287,6.0,10.0,64,0.00,,,0.00,Wunderground v.1.15,2013-01-26 17:59:00,
2013-01-26 13:04:00,15.6,5.2,30.27,WSW,256,6.0,7.0,63,0.00,,,0.00,Wunderground v.1.15,2013-01-26 18:04:00,
2013-01-26 13:09:00,15.7,6.3,30.27,NW,305,3.0,7.0,66,0.00,,,0.00,Wunderground v.1.15,2013-01-26 18:09:00,
2013-01-26 13:15:00,16.3,6.2,30.27,WNW,297,2.0,5.0,64,0.00,,,0.00,Wunderground v.1.15,2013-01-26 18:15:00,
2013-01-26 13:20:00,16.2,5.8,30.27,NW,305,2.0,5.0,63,0.00,,,0.00,Wunderground v.1.15,2013-01-26 18:20:00,
2013-01-26 13:25:00,16.3,6.2,30.27,WNW,290,3.0,7.0,64,0.00,,,0.00,Wunderground v.1.15,2013-01-26 18:25:00,
2013-01-26 13:31:00,16.6,7.2,30.27,WNW,288,2.0,7.0,66,0.00,,,0.00,Wunderground v.1.15,2013-01-26 18:31:00,
2013-01-26 13:36:00,16.3,5.9,30.27,West,267,3.0,5.0,63,0.00,,,0.00,Wunderground v.1.15,2013-01-26 18:36:00,
2013-01-26 13:41:00,16.4,6.7,30.27,NW,316,3.0,3.0,65,0.00,,,0.00,Wunderground v.1.15,2013-01-26 18:41:00,
2013-01-26 13:46:00,16.8,7.1,30.28,NW,305,2.0,3.0,65,0.00,,,0.00,Wunderground v.1.15,2013-01-26 18:46:00,
2013-01-26 13:52:00,16.7,6.6,30.28,WNW,296,2.0,6.0,64,0.00,,,0.00,Wunderground v.1.15,2013-01-26 18:52:00,
2013-01-26 13:58:00,16.7,7.0,30.28,WNW,295,4.0,8.0,65,0.00,,,0.00,Wunderground v.1.15,2013-01-26 18:58:00,
2013-01-26 14:04:00,16.5,6.8,30.28,NW,308,5.0,6.0,65,0.00,,,0.00,Wunderground v.1.15,2013-01-26 19:04:00,
2013-01-26 14:09:00,16.5,6.4,30.28,WNW,297,6.0,13.0,64,0.00,,,0.00,Wunderground v.1.15,2013-01-26 19:09:00,
2013-01-26 14:14:00,16.7,7.3,30.29,NW,305,6.0,7.0,66,0.00,,,0.00,Wunderground v.1.15,2013-01-26 19:14:00,
2013-01-26 14:19:00,17.1,7.3,30.29,NNE,33,3.0,7.0,65,0.00,,,0.00,Wunderground v.1.15,2013-01-26 19:19:00,
2013-01-26 14:25:00,16.9,6.8,30.29,WSW,240,4.0,9.0,64,0.00,,,0.00,Wunderground v.1.15,2013-01-26 19:25:00,
2013-01-26 14:31:00,16.8,6.4,30.29,WNW,290,7.0,9.0,63,0.00,,,0.00,Wunderground v.1.15,2013-01-26 19:31:00,
2013-01-26 14:36:00,16.7,6.6,30.29,WNW,300,7.0,9.0,64,0.00,,,0.00,Wunderground v.1.15,2013-01-26 19:36:00,
2013-01-26 14:42:00,16.8,7.1,30.29,WNW,284,5.0,7.0,65,0.00,,,0.00,Wunderground v.1.15,2013-01-26 19:42:00,
2013-01-26 14:48:00,16.9,7.2,30.29,WNW,293,5.0,7.0,65,0.00,,,0.00,Wunderground v.1.15,2013-01-26 19:48:00,
2013-01-26 14:53:00,17.1,7.0,30.29,West,277,4.0,5.0,64,0.00,,,0.00,Wunderground v.1.15,2013-01-26 19:53:00,
2013-01-26 14:59:00,17.7,8.3,30.29,NW,326,3.0,5.0,66,0.00,,,0.00,Wunderground v.1.15,2013-01-26 19:59:00,
2013-01-26 15:05:00,17.7,7.9,30.30,WNW,285,3.0,7.0,65,0.00,,,0.00,Wunderground v.1.15,2013-01-26 20:05:00,
2013-01-26 15:10:00,17.4,7.6,30.30,WNW,291,5.0,6.0,65,0.00,,,0.00,Wunderground v.1.15,2013-01-26 20:10:00,
2013-01-26 15:16:00,17.3,7.9,30.30,West,278,4.0,6.0,66,0.00,,,0.00,Wunderground v.1.15,2013-01-26 20:16:00,
2013-01-26 15:21:00,17.3,7.9,30.30,WNW,300,4.0,4.0,66,0.00,,,0.00,Wunderground v.1.15,2013-01-26 20:21:00,
2013-01-26 15:27:00,17.2,7.4,30.30,WNW,288,4.0,6.0,65,0.00,,,0.00,Wunderground v.1.15,2013-01-26 20:27:00,
2013-01-26 15:33:00,17.2,7.4,30.30,West,273,5.0,6.0,65,0.00,,,0.00,Wunderground v.1.15,2013-01-26 20:33:00,
2013-01-26 15:38:00,17.3,7.5,30.30,WNW,293,4.0,6.0,65,0.00,,,0.00,Wunderground v.1.15,2013-01-26 20:38:00,
2013-01-26 15:43:00,17.3,7.9,30.30,WNW,301,3.0,3.0,66,0.00,,,0.00,Wunderground v.1.15,2013-01-26 20:43:00,
2013-01-26 15:49:00,17.3,7.5,30.30,West,271,2.0,4.0,65,0.00,,,0.00,Wunderground v.1.15,2013-01-26 20:49:00,
2013-01-26 15:54:00,17.2,7.4,30.30,WNW,287,2.0,4.0,65,0.00,,,0.00,Wunderground v.1.15,2013-01-26 20:54:00,
2013-01-26 15:59:00,17.1,7.3,30.30,North,357,3.0,5.0,65,0.00,,,0.00,Wunderground v.1.15,2013-01-26 20:59:00,
2013-01-26 16:05:00,17.3,7.9,30.30,NW,326,2.0,3.0,66,0.00,,,0.00,Wunderground v.1.15,2013-01-26 21:05:00,
2013-01-26 16:10:00,17.3,7.5,30.30,WNW,300,1.0,3.0,65,0.00,,,0.00,Wunderground v.1.15,2013-01-26 21:10:00,
2013-01-26 16:15:00,17.0,7.3,30.30,NW,308,1.0,1.0,65,0.00,,,0.00,Wunderground v.1.15,2013-01-26 21:15:00,
2013-01-26 16:21:00,16.7,7.0,30.31,WNW,289,1.0,1.0,65,0.00,,,0.00,Wunderground v.1.15,2013-01-26 21:21:00,
2013-01-26 16:27:00,16.5,7.1,30.31,WNW,287,2.0,4.0,66,0.00,,,0.00,Wunderground v.1.15,2013-01-26 21:27:00,
2013-01-26 16:32:00,16.3,6.9,30.31,West,281,3.0,3.0,66,0.00,,,0.00,Wunderground v.1.15,2013-01-26 21:32:00,
2013-01-26 16:37:00,16.2,7.2,30.31,West,278,2.0,3.0,67,0.00,,,0.00,Wunderground v.1.15,2013-01-26 21:37:00,
2013-01-26 16:43:00,16.2,7.2,30.31,WNW,290,1.0,2.0,67,0.00,,,0.00,Wunderground v.1.15,2013-01-26 21:43:00,
2013-01-26 16:49:00,15.9,6.9,30.31,WNW,287,1.0,2.0,67,0.00,,,0.00,Wunderground v.1.15,2013-01-26 21:49:00,
2013-01-26 16:55:00,15.8,7.1,30.31,WSW,253,0.0,1.0,68,0.00,,,0.00,Wunderground v.1.15,2013-01-26 21:55:00,
2013-01-26 17:00:00,15.7,7.0,30.32,West,260,1.0,1.0,68,0.00,,,0.00,Wunderground v.1.15,2013-01-26 22:00:00,
2013-01-26 17:05:00,15.6,6.9,30.32,WSW,253,1.0,1.0,68,0.00,,,0.00,Wunderground v.1.15,2013-01-26 22:05:00,
2013-01-26 17:11:00,15.2,6.8,30.32,SW,235,0.0,1.0,69,0.00,,,0.00,Wunderground v.1.15,2013-01-26 22:11:00,
2013-01-26 17:16:00,14.9,6.9,30.32,WSW,246,0.0,1.0,70,0.00,,,0.00,Wunderground v.1.15,2013-01-26 22:16:00,
2013-01-26 17:22:00,14.6,6.6,30.32,SW,218,0.0,1.0,70,0.00,,,0.00,Wunderground v.1.15,2013-01-26 22:22:00,
2013-01-26 17:27:00,14.3,6.6,30.33,SW,222,0.0,1.0,71,0.00,,,0.00,Wunderground v.1.15,2013-01-26 22:27:00,
2013-01-26 17:33:00,13.9,6.2,30.33,SW,226,0.0,0.0,71,0.00,,,0.00,Wunderground v.1.15,2013-01-26 22:33:00,
2013-01-26 17:38:00,13.2,5.9,30.33,SSE,158,0.0,0.0,72,0.00,,,0.00,Wunderground v.1.15,2013-01-26 22:38:00,
2013-01-26 17:44:00,12.6,5.6,30.33,SSE,158,0.0,0.0,73,0.00,,,0.00,Wunderground v.1.15,2013-01-26 22:44:00,
2013-01-26 17:49:00,12.2,5.5,30.33,SSE,158,0.0,0.0,74,0.00,,,0.00,Wunderground v.1.15,2013-01-26 22:49:00,
2013-01-26 17:55:00,11.9,5.5,30.33,SSE,158,0.0,0.0,75,0.00,,,0.00,Wunderground v.1.15,2013-01-26 22:55:00,
2013-01-26 18:00:00,12.2,6.4,30.33,SE,128,0.0,0.0,77,0.00,,,0.00,Wunderground v.1.15,2013-01-26 23:00:00,
2013-01-26 18:05:00,12.4,6.6,30.33,WSW,238,0.0,0.0,77,0.00,,,0.00,Wunderground v.1.15,2013-01-26 23:05:00,
2013-01-26 18:10:00,12.5,6.9,30.33,WSW,238,0.0,0.0,78,0.00,,,0.00,Wunderground v.1.15,2013-01-26 23:10:00,
2013-01-26 18:16:00,12.6,7.0,30.34,WSW,238,0.0,0.0,78,0.00,,,0.00,Wunderground v.1.15,2013-01-26 23:16:00,
2013-01-26 18:22:00,12.6,7.3,30.34,WSW,246,0.0,0.0,79,0.00,,,0.00,Wunderground v.1.15,2013-01-26 23:22:00,
2013-01-26 18:27:00,12.7,7.4,30.34,SW,217,0.0,1.0,79,0.00,,,0.00,Wunderground v.1.15,2013-01-26 23:27:00,
2013-01-26 18:33:00,13.0,7.7,30.34,West,264,0.0,1.0,79,0.00,,,0.00,Wunderground v.1.15,2013-01-26 23:33:00,
2013-01-26 18:38:00,13.0,7.4,30.34,West,260,0.0,1.0,78,0.00,,,0.00,Wunderground v.1.15,2013-01-26 23:38:00,
2013-01-26 18:43:00,12.5,6.9,30.34,West,260,0.0,0.0,78,0.00,,,0.00,Wunderground v.1.15,2013-01-26 23:43:00,
2013-01-26 18:49:00,12.1,6.8,30.34,West,264,0.0,0.0,79,0.00,,,0.00,Wunderground v.1.15,2013-01-26 23:49:00,
2013-01-26 18:55:00,12.4,7.4,30.34,WSW,253,0.0,1.0,80,0.00,,,0.00,Wunderground v.1.15,2013-01-26 23:55:00,
2013-01-26 19:01:00,12.8,7.5,30.35,WSW,243,1.0,1.0,79,0.00,,,0.00,Wunderground v.1.15,2013-01-27 00:01:00,
2013-01-26 19:07:00,12.9,7.6,30.35,SW,221,1.0,1.0,79,0.00,,,0.00,Wunderground v.1.15,2013-01-27 00:07:00,
2013-01-26 19:13:00,13.2,7.9,30.35,West,278,1.0,2.0,79,0.00,,,0.00,Wunderground v.1.15,2013-01-27 00:13:00,
2013-01-26 19:18:00,13.1,7.5,30.35,West,279,1.0,2.0,78,0.00,,,0.00,Wunderground v.1.15,2013-01-27 00:18:00,
2013-01-26 19:24:00,12.6,7.0,30.36,West,280,0.0,1.0,78,0.00,,,0.00,Wunderground v.1.15,2013-01-27 00:24:00,
2013-01-26 19:29:00,11.9,6.4,30.36,West,279,0.0,1.0,78,0.00,,,0.00,Wunderground v.1.15,2013-01-27 00:29:00,
2013-01-26 19:35:00,11.4,6.4,30.36,West,269,0.0,0.0,80,0.00,,,0.00,Wunderground v.1.15,2013-01-27 00:35:00,
2013-01-26 19:40:00,11.5,7.1,30.36,WSW,241,0.0,2.0,82,0.00,,,0.00,Wunderground v.1.15,2013-01-27 00:40:00,
2013-01-26 19:45:00,12.4,8.0,30.36,WSW,250,1.0,4.0,82,0.00,,,0.00,Wunderground v.1.15,2013-01-27 00:45:00,
2013-01-26 19:51:00,12.8,7.8,30.36,West,264,2.0,2.0,80,0.00,,,0.00,Wunderground v.1.15,2013-01-27 00:51:00,
2013-01-26 19:57:00,11.8,6.3,30.36,East,79,0.0,2.0,78,0.00,,,0.00,Wunderground v.1.15,2013-01-27 00:57:00,
2013-01-26 20:02:00,10.9,5.9,30.36,ESE,113,0.0,0.0,80,0.00,,,0.00,Wunderground v.1.15,2013-01-27 01:02:00,
2013-01-26 20:07:00,10.3,5.6,30.36,ESE,117,0.0,0.0,81,0.00,,,0.00,Wunderground v.1.15,2013-01-27 01:07:00,
2013-01-26 20:13:00,9.9,5.5,30.36,ESE,117,0.0,0.0,82,0.00,,,0.00,Wunderground v.1.15,2013-01-27 01:13:00,
2013-01-26 20:18:00,9.6,5.5,30.36,ESE,117,0.0,0.0,83,0.00,,,0.00,Wunderground v.1.15,2013-01-27 01:18:00,
2013-01-26 20:23:00,9.6,5.7,30.36,WSW,246,0.0,1.0,84,0.00,,,0.00,Wunderground v.1.15,2013-01-27 01:23:00,
2013-01-26 20:29:00,11.3,7.9,30.36,SW,233,1.0,2.0,86,0.00,,,0.00,Wunderground v.1.15,2013-01-27 01:29:00,
2013-01-26 20:34:00,12.1,7.9,30.36,SSE,150,1.0,1.0,83,0.00,,,0.00,Wunderground v.1.15,2013-01-27 01:34:00,
2013-01-26 20:40:00,12.3,8.1,30.36,SW,232,0.0,0.0,83,0.00,,,0.00,Wunderground v.1.15,2013-01-27 01:40:00,
2013-01-26 20:45:00,12.4,8.0,30.37,West,274,0.0,0.0,82,0.00,,,0.00,Wunderground v.1.15,2013-01-27 01:45:00,
2013-01-26 20:50:00,12.5,8.0,30.37,WSW,248,0.0,0.0,82,0.00,,,0.00,Wunderground v.1.15,2013-01-27 01:50:00,
2013-01-26 20:56:00,12.4,8.0,30.37,WSW,249,0.0,0.0,82,0.00,,,0.00,Wunderground v.1.15,2013-01-27 01:56:00,
2013-01-26 21:01:00,12.5,8.0,30.37,SW,235,0.0,0.0,82,0.00,,,0.00,Wunderground v.1.15,2013-01-27 02:01:00,
2013-01-26 21:06:00,12.3,7.6,30.37,SW,235,0.0,0.0,81,0.00,,,0.00,Wunderground v.1.15,2013-01-27 02:06:00,
2013-01-26 21:12:00,11.7,7.0,30.37,ENE,61,0.0,2.0,81,0.00,,,0.00,Wunderground v.1.15,2013-01-27 02:12:00,
2013-01-26 21:17:00,11.1,6.7,30.37,ENE,74,0.0,2.0,82,0.00,,,0.00,Wunderground v.1.15,2013-01-27 02:17:00,
2013-01-26 21:23:00,10.8,6.7,30.37,SE,133,0.0,0.0,83,0.00,,,0.00,Wunderground v.1.15,2013-01-27 02:23:00,
2013-01-26 21:28:00,10.8,6.9,30.37,SE,132,0.0,0.0,84,0.00,,,0.00,Wunderground v.1.15,2013-01-27 02:28:00,
2013-01-26 21:33:00,10.9,7.3,30.38,SE,133,0.0,0.0,85,0.00,,,0.00,Wunderground v.1.15,2013-01-27 02:33:00,
2013-01-26 21:39:00,11.3,7.7,30.38,SE,132,0.0,0.0,85,0.00,,,0.00,Wunderground v.1.15,2013-01-27 02:39:00,
2013-01-26 21:44:00,11.3,7.7,30.38,SE,132,0.0,0.0,85,0.00,,,0.00,Wunderground v.1.15,2013-01-27 02:44:00,
2013-01-26 21:49:00,11.8,8.2,30.38,SSE,168,0.0,0.0,85,0.00,,,0.00,Wunderground v.1.15,2013-01-27 02:49:00,
2013-01-26 21:54:00,12.4,9.0,30.38,SW,214,0.0,1.0,86,0.00,,,0.00,Wunderground v.1.15,2013-01-27 02:54:00,
2013-01-26 22:01:00,13.0,9.3,30.38,ESE,113,0.0,1.0,85,0.00,,,0.00,Wunderground v.1.15,2013-01-27 03:01:00,
2013-01-26 22:06:00,13.5,9.8,30.38,ESE,117,0.0,1.0,85,0.00,,,0.00,Wunderground v.1.15,2013-01-27 03:06:00,
2013-01-26 22:12:00,13.9,10.0,30.38,ESE,111,0.0,0.0,84,0.00,,,0.00,Wunderground v.1.15,2013-01-27 03:12:00,
2013-01-26 22:19:00,14.3,10.4,30.38,SW,232,0.0,0.0,84,0.00,,,0.00,Wunderground v.1.15,2013-01-27 03:19:00,
2013-01-26 22:24:00,14.4,10.4,30.38,WSW,243,0.0,0.0,84,0.00,,,0.00,Wunderground v.1.15,2013-01-27 03:24:00,
2013-01-26 22:29:00,14.5,10.8,30.38,SSE,160,0.0,0.0,85,0.00,,,0.00,Wunderground v.1.15,2013-01-27 03:29:00,
2013-01-26 22:35:00,14.8,11.4,30.38,SSE,167,0.0,0.0,86,0.00,,,0.00,Wunderground v.1.15,2013-01-27 03:35:00,
2013-01-26 22:40:00,15.2,11.8,30.38,WNW,283,0.0,1.0,86,0.00,,,0.00,Wunderground v.1.15,2013-01-27 03:40:00,
2013-01-26 22:47:00,15.5,12.3,30.38,West,264,1.0,1.0,87,0.00,,,0.00,Wunderground v.1.15,2013-01-27 03:47:00,
2013-01-26 22:52:00,15.7,12.5,30.39,West,260,0.0,2.0,87,0.00,,,0.00,Wunderground v.1.15,2013-01-27 03:52:00,
2013-01-26 22:58:00,16.0,13.1,30.38,East,98,1.0,2.0,88,0.00,,,0.00,Wunderground v.1.15,2013-01-27 03:58:00,
2013-01-26 23:03:00,16.2,13.3,30.38,WSW,253,0.0,5.0,88,0.00,,,0.00,Wunderground v.1.15,2013-01-27 04:03:00,
2013-01-26 23:09:00,16.5,13.6,30.38,WNW,284,1.0,5.0,88,0.00,,,0.00,Wunderground v.1.15,2013-01-27 04:09:00,
2013-01-26 23:14:00,16.7,13.5,30.38,SW,221,1.0,2.0,87,0.00,,,0.00,Wunderground v.1.15,2013-01-27 04:14:00,
2013-01-26 23:19:00,16.7,13.5,30.38,West,281,1.0,2.0,87,0.00,,,0.00,Wunderground v.1.15,2013-01-27 04:19:00,
2013-01-26 23:24:00,16.9,14.0,30.39,NW,307,1.0,4.0,88,0.00,,,0.00,Wunderground v.1.15,2013-01-27 04:24:00,
2013-01-26 23:30:00,17.2,14.3,30.39,NW,312,2.0,5.0,88,0.00,,,0.00,Wunderground v.1.15,2013-01-27 04:30:00,
2013-01-26 23:35:00,17.4,14.5,30.39,West,273,3.0,5.0,88,0.00,,,0.00,Wunderground v.1.15,2013-01-27 04:35:00,
2013-01-26 23:40:00,17.6,14.7,30.39,WNW,298,3.0,3.0,88,0.00,,,0.00,Wunderground v.1.15,2013-01-27 04:40:00,
2013-01-26 23:45:00,17.8,14.8,30.39,WNW,288,3.0,7.0,88,0.00,,,0.00,Wunderground v.1.15,2013-01-27 04:45:00,
2013-01-26 23:50:00,18.1,15.4,30.39,NW,308,4.0,4.0,89,0.00,,,0.00,Wunderground v.1.15,2013-01-27 04:50:00,
2013-01-26 23:56:00,18.3,15.6,30.39,WNW,291,5.0,6.0,89,0.00,,,0.00,Wunderground v.1.15,2013-01-27 04:56:00,